sensor_id;sensor_type;location;lat;lon;timestamp;P1;durP1;ratioP1;P2;durP2;ratioP2
50367;SDS011;36281;34.132;-118.018;2023-04-25T00:01:12;21.40;;;11.23;;
50367;SDS011;36281;34.132;-118.018;2023-04-25T00:03:41;23.60;;;12.77;;
50367;SDS011;36281;34.132;-118.018;2023-04-25T00:06:10;18.77;;;11.50;;
50367;SDS011;36281;34.132;-118.018;2023-04-25T00:08:40;21.70;;;12.35;;
50367;SDS011;36281;34.132;-118.018;2023-04-25T00:11:09;22.17;;;12.80;;
50367;SDS011;36281;34.132;-118.018;2023-04-25T00:13:38;19.75;;;11.45;;
50367;SDS011;36281;34.132;-118.018;2023-04-25T00:16:09;22.52;;;12.20;;
50367;SDS011;36281;34.132;-118.018;2023-04-25T00:18:41;20.55;;;11.88;;
50367;SDS011;36281;34.132;-118.018;2023-04-25T00:21:10;19.33;;;12.80;;
50367;SDS011;36281;34.132;-118.018;2023-04-25T00:23:39;22.85;;;12.27;;
50367;SDS011;36281;34.132;-118.018;2023-04-25T00:26:08;24.73;;;11.70;;
50367;SDS011;36281;34.132;-118.018;2023-04-25T00:28:38;18.20;;;11.20;;
50367;SDS011;36281;34.132;-118.018;2023-04-25T00:31:07;16.75;;;11.05;;
50367;SDS011;36281;34.132;-118.018;2023-04-25T00:33:36;21.35;;;11.07;;
50367;SDS011;36281;34.132;-118.018;2023-04-25T00:36:08;18.48;;;10.60;;
50367;SDS011;36281;34.132;-118.018;2023-04-25T00:38:37;19.48;;;11.50;;
50367;SDS011;36281;34.132;-118.018;2023-04-25T00:41:06;21.67;;;12.35;;
50367;SDS011;36281;34.132;-118.018;2023-04-25T00:43:36;25.95;;;12.10;;
50367;SDS011;36281;34.132;-118.018;2023-04-25T00:46:05;16.15;;;10.50;;
50367;SDS011;36281;34.132;-118.018;2023-04-25T00:48:34;19.95;;;11.95;;
50367;SDS011;36281;34.132;-118.018;2023-04-25T00:51:03;23.48;;;12.13;;
50367;SDS011;36281;34.132;-118.018;2023-04-25T00:53:34;23.08;;;13.23;;
50367;SDS011;36281;34.132;-118.018;2023-04-25T00:56:03;18.80;;;11.38;;
50367;SDS011;36281;34.132;-118.018;2023-04-25T00:58:33;17.48;;;11.07;;
50367;SDS011;36281;34.132;-118.018;2023-04-25T01:01:02;17.02;;;10.80;;
50367;SDS011;36281;34.132;-118.018;2023-04-25T01:03:32;18.92;;;11.23;;
50367;SDS011;36281;34.132;-118.018;2023-04-25T01:06:04;17.58;;;10.95;;
50367;SDS011;36281;34.132;-118.018;2023-04-25T01:08:35;17.33;;;11.35;;
50367;SDS011;36281;34.132;-118.018;2023-04-25T01:11:05;19.73;;;11.27;;
50367;SDS011;36281;34.132;-118.018;2023-04-25T01:13:34;22.77;;;12.60;;
50367;SDS011;36281;34.132;-118.018;2023-04-25T01:16:04;17.98;;;11.25;;
50367;SDS011;36281;34.132;-118.018;2023-04-25T01:18:33;18.40;;;11.38;;
50367;SDS011;36281;34.132;-118.018;2023-04-25T01:21:06;19.67;;;12.07;;
50367;SDS011;36281;34.132;-118.018;2023-04-25T01:23:37;22.37;;;12.60;;
50367;SDS011;36281;34.132;-118.018;2023-04-25T01:26:07;22.15;;;11.23;;
50367;SDS011;36281;34.132;-118.018;2023-04-25T01:28:38;23.30;;;11.98;;
50367;SDS011;36281;34.132;-118.018;2023-04-25T01:31:10;17.63;;;11.18;;
50367;SDS011;36281;34.132;-118.018;2023-04-25T01:33:40;20.20;;;12.43;;
50367;SDS011;36281;34.132;-118.018;2023-04-25T01:36:11;20.15;;;11.88;;
50367;SDS011;36281;34.132;-118.018;2023-04-25T01:38:42;18.00;;;10.80;;
50367;SDS011;36281;34.132;-118.018;2023-04-25T01:41:11;15.43;;;11.20;;
50367;SDS011;36281;34.132;-118.018;2023-04-25T01:43:41;14.68;;;11.23;;
50367;SDS011;36281;34.132;-118.018;2023-04-25T01:46:10;17.25;;;11.65;;
50367;SDS011;36281;34.132;-118.018;2023-04-25T01:48:40;22.73;;;11.75;;
50367;SDS011;36281;34.132;-118.018;2023-04-25T01:51:11;19.35;;;11.57;;
50367;SDS011;36281;34.132;-118.018;2023-04-25T01:53:40;20.95;;;11.25;;
50367;SDS011;36281;34.132;-118.018;2023-04-25T01:56:10;22.23;;;12.00;;
50367;SDS011;36281;34.132;-118.018;2023-04-25T01:58:39;19.67;;;11.13;;
50367;SDS011;36281;34.132;-118.018;2023-04-25T02:01:08;21.90;;;12.32;;
50367;SDS011;36281;34.132;-118.018;2023-04-25T02:03:37;23.27;;;12.80;;
50367;SDS011;36281;34.132;-118.018;2023-04-25T02:06:07;20.50;;;12.20;;
50367;SDS011;36281;34.132;-118.018;2023-04-25T02:08:38;15.38;;;11.02;;
50367;SDS011;36281;34.132;-118.018;2023-04-25T02:11:07;18.95;;;11.18;;
50367;SDS011;36281;34.132;-118.018;2023-04-25T02:13:36;18.90;;;11.15;;
50367;SDS011;36281;34.132;-118.018;2023-04-25T02:16:05;19.98;;;11.98;;
50367;SDS011;36281;34.132;-118.018;2023-04-25T02:18:34;20.63;;;11.38;;
50367;SDS011;36281;34.132;-118.018;2023-04-25T02:21:05;17.40;;;9.85;;
50367;SDS011;36281;34.132;-118.018;2023-04-25T02:23:34;16.67;;;11.05;;
50367;SDS011;36281;34.132;-118.018;2023-04-25T02:26:04;20.42;;;11.15;;
50367;SDS011;36281;34.132;-118.018;2023-04-25T02:28:34;15.70;;;10.70;;
50367;SDS011;36281;34.132;-118.018;2023-04-25T02:31:03;17.95;;;10.27;;
50367;SDS011;36281;34.132;-118.018;2023-04-25T02:33:32;20.95;;;11.57;;
50367;SDS011;36281;34.132;-118.018;2023-04-25T02:36:02;15.13;;;10.95;;
50367;SDS011;36281;34.132;-118.018;2023-04-25T02:38:32;17.08;;;10.70;;
50367;SDS011;36281;34.132;-118.018;2023-04-25T02:41:01;20.67;;;10.73;;
50367;SDS011;36281;34.132;-118.018;2023-04-25T02:43:31;15.50;;;10.52;;
50367;SDS011;36281;34.132;-118.018;2023-04-25T02:46:00;21.60;;;11.30;;
50367;SDS011;36281;34.132;-118.018;2023-04-25T02:48:29;17.85;;;10.77;;
50367;SDS011;36281;34.132;-118.018;2023-04-25T02:50:58;20.48;;;11.13;;
50367;SDS011;36281;34.132;-118.018;2023-04-25T02:53:27;18.13;;;11.88;;
50367;SDS011;36281;34.132;-118.018;2023-04-25T02:55:56;16.90;;;11.43;;
50367;SDS011;36281;34.132;-118.018;2023-04-25T02:58:26;18.30;;;11.73;;
50367;SDS011;36281;34.132;-118.018;2023-04-25T03:00:57;18.67;;;12.05;;
50367;SDS011;36281;34.132;-118.018;2023-04-25T03:03:26;18.27;;;11.63;;
50367;SDS011;36281;34.132;-118.018;2023-04-25T03:05:55;17.65;;;11.18;;
50367;SDS011;36281;34.132;-118.018;2023-04-25T03:08:25;16.65;;;10.85;;
50367;SDS011;36281;34.132;-118.018;2023-04-25T03:10:57;17.88;;;11.40;;
50367;SDS011;36281;34.132;-118.018;2023-04-25T03:13:26;16.60;;;10.52;;
50367;SDS011;36281;34.132;-118.018;2023-04-25T03:15:59;16.95;;;11.07;;
50367;SDS011;36281;34.132;-118.018;2023-04-25T03:18:28;18.30;;;11.27;;
50367;SDS011;36281;34.132;-118.018;2023-04-25T03:20:57;17.13;;;11.32;;
50367;SDS011;36281;34.132;-118.018;2023-04-25T03:23:26;16.77;;;10.10;;
50367;SDS011;36281;34.132;-118.018;2023-04-25T03:25:55;14.50;;;10.18;;
50367;SDS011;36281;34.132;-118.018;2023-04-25T03:28:24;18.70;;;11.00;;
50367;SDS011;36281;34.132;-118.018;2023-04-25T03:30:53;24.90;;;11.50;;
50367;SDS011;36281;34.132;-118.018;2023-04-25T03:33:24;16.13;;;10.75;;
50367;SDS011;36281;34.132;-118.018;2023-04-25T03:35:53;19.45;;;10.95;;
50367;SDS011;36281;34.132;-118.018;2023-04-25T03:38:22;15.35;;;10.40;;
50367;SDS011;36281;34.132;-118.018;2023-04-25T03:40:51;16.17;;;10.70;;
50367;SDS011;36281;34.132;-118.018;2023-04-25T03:43:20;16.35;;;10.55;;
50367;SDS011;36281;34.132;-118.018;2023-04-25T03:45:49;14.27;;;10.88;;
50367;SDS011;36281;34.132;-118.018;2023-04-25T03:48:19;16.75;;;10.77;;
50367;SDS011;36281;34.132;-118.018;2023-04-25T03:50:54;14.93;;;10.60;;
50367;SDS011;36281;34.132;-118.018;2023-04-25T03:53:23;15.02;;;10.18;;
50367;SDS011;36281;34.132;-118.018;2023-04-25T03:55:52;15.40;;;9.77;;
50367;SDS011;36281;34.132;-118.018;2023-04-25T03:58:21;16.73;;;10.57;;
50367;SDS011;36281;34.132;-118.018;2023-04-25T04:00:52;18.63;;;10.38;;
50367;SDS011;36281;34.132;-118.018;2023-04-25T04:03:20;17.80;;;10.95;;
50367;SDS011;36281;34.132;-118.018;2023-04-25T04:05:50;17.90;;;11.00;;
50367;SDS011;36281;34.132;-118.018;2023-04-25T04:08:21;17.45;;;10.73;;
50367;SDS011;36281;34.132;-118.018;2023-04-25T04:10:50;16.65;;;10.70;;
50367;SDS011;36281;34.132;-118.018;2023-04-25T04:13:19;17.42;;;10.38;;
50367;SDS011;36281;34.132;-118.018;2023-04-25T04:15:48;13.80;;;9.95;;
50367;SDS011;36281;34.132;-118.018;2023-04-25T04:18:18;17.08;;;10.20;;
50367;SDS011;36281;34.132;-118.018;2023-04-25T04:20:47;16.13;;;9.52;;
50367;SDS011;36281;34.132;-118.018;2023-04-25T04:23:16;15.45;;;10.20;;
50367;SDS011;36281;34.132;-118.018;2023-04-25T04:25:47;16.10;;;9.77;;
50367;SDS011;36281;34.132;-118.018;2023-04-25T04:28:16;17.92;;;10.55;;
50367;SDS011;36281;34.132;-118.018;2023-04-25T04:30:45;15.35;;;9.90;;
50367;SDS011;36281;34.132;-118.018;2023-04-25T04:33:14;13.50;;;9.70;;
50367;SDS011;36281;34.132;-118.018;2023-04-25T04:35:43;15.45;;;9.88;;
50367;SDS011;36281;34.132;-118.018;2023-04-25T04:38:12;14.85;;;9.57;;
50367;SDS011;36281;34.132;-118.018;2023-04-25T04:40:43;18.70;;;10.65;;
50367;SDS011;36281;34.132;-118.018;2023-04-25T04:43:13;16.73;;;10.40;;
50367;SDS011;36281;34.132;-118.018;2023-04-25T04:45:44;18.00;;;10.10;;
50367;SDS011;36281;34.132;-118.018;2023-04-25T04:48:13;13.23;;;10.13;;
50367;SDS011;36281;34.132;-118.018;2023-04-25T04:50:42;16.75;;;10.80;;
50367;SDS011;36281;34.132;-118.018;2023-04-25T04:53:15;19.15;;;11.20;;
50367;SDS011;36281;34.132;-118.018;2023-04-25T04:55:44;15.57;;;9.77;;
50367;SDS011;36281;34.132;-118.018;2023-04-25T04:58:15;16.42;;;10.43;;
50367;SDS011;36281;34.132;-118.018;2023-04-25T05:00:45;14.75;;;10.10;;
50367;SDS011;36281;34.132;-118.018;2023-04-25T05:03:14;14.68;;;9.30;;
50367;SDS011;36281;34.132;-118.018;2023-04-25T05:05:43;14.35;;;9.82;;
50367;SDS011;36281;34.132;-118.018;2023-04-25T05:08:13;14.35;;;10.20;;
50367;SDS011;36281;34.132;-118.018;2023-04-25T05:10:42;15.27;;;10.25;;
50367;SDS011;36281;34.132;-118.018;2023-04-25T05:13:11;16.27;;;10.88;;
50367;SDS011;36281;34.132;-118.018;2023-04-25T05:15:42;15.95;;;11.02;;
50367;SDS011;36281;34.132;-118.018;2023-04-25T05:18:11;17.45;;;10.23;;
50367;SDS011;36281;34.132;-118.018;2023-04-25T05:20:40;16.13;;;10.50;;
50367;SDS011;36281;34.132;-118.018;2023-04-25T05:23:09;17.60;;;9.80;;
50367;SDS011;36281;34.132;-118.018;2023-04-25T05:25:38;16.67;;;9.98;;
50367;SDS011;36281;34.132;-118.018;2023-04-25T05:28:07;15.27;;;10.13;;
50367;SDS011;36281;34.132;-118.018;2023-04-25T05:30:37;14.95;;;9.52;;
50367;SDS011;36281;34.132;-118.018;2023-04-25T05:33:07;18.50;;;10.35;;
50367;SDS011;36281;34.132;-118.018;2023-04-25T05:35:36;17.73;;;10.40;;
50367;SDS011;36281;34.132;-118.018;2023-04-25T05:38:05;13.45;;;10.15;;
50367;SDS011;36281;34.132;-118.018;2023-04-25T05:40:34;18.42;;;10.65;;
50367;SDS011;36281;34.132;-118.018;2023-04-25T05:43:04;16.45;;;10.60;;
50367;SDS011;36281;34.132;-118.018;2023-04-25T05:45:33;17.27;;;10.38;;
50367;SDS011;36281;34.132;-118.018;2023-04-25T05:48:02;19.15;;;11.00;;
50367;SDS011;36281;34.132;-118.018;2023-04-25T05:50:33;18.77;;;10.63;;
50367;SDS011;36281;34.132;-118.018;2023-04-25T05:53:02;16.15;;;10.27;;
50367;SDS011;36281;34.132;-118.018;2023-04-25T05:55:33;16.73;;;10.88;;
50367;SDS011;36281;34.132;-118.018;2023-04-25T05:58:02;17.35;;;10.82;;
50367;SDS011;36281;34.132;-118.018;2023-04-25T06:00:32;18.15;;;10.45;;
50367;SDS011;36281;34.132;-118.018;2023-04-25T06:03:02;14.35;;;10.15;;
50367;SDS011;36281;34.132;-118.018;2023-04-25T06:05:33;15.98;;;10.80;;
50367;SDS011;36281;34.132;-118.018;2023-04-25T06:08:02;14.75;;;10.57;;
50367;SDS011;36281;34.132;-118.018;2023-04-25T06:10:31;16.35;;;10.20;;
50367;SDS011;36281;34.132;-118.018;2023-04-25T06:13:00;16.88;;;10.98;;
50367;SDS011;36281;34.132;-118.018;2023-04-25T06:15:30;25.27;;;10.65;;
50367;SDS011;36281;34.132;-118.018;2023-04-25T06:18:02;18.52;;;10.57;;
50367;SDS011;36281;34.132;-118.018;2023-04-25T06:20:34;17.25;;;11.00;;
50367;SDS011;36281;34.132;-118.018;2023-04-25T06:23:03;19.52;;;11.10;;
50367;SDS011;36281;34.132;-118.018;2023-04-25T06:25:32;17.98;;;10.73;;
50367;SDS011;36281;34.132;-118.018;2023-04-25T06:28:02;20.50;;;11.80;;
50367;SDS011;36281;34.132;-118.018;2023-04-25T06:30:31;18.20;;;11.55;;
50367;SDS011;36281;34.132;-118.018;2023-04-25T06:33:00;18.45;;;11.25;;
50367;SDS011;36281;34.132;-118.018;2023-04-25T06:35:29;18.15;;;11.68;;
50367;SDS011;36281;34.132;-118.018;2023-04-25T06:38:00;17.63;;;11.93;;
50367;SDS011;36281;34.132;-118.018;2023-04-25T06:40:29;17.75;;;11.88;;
50367;SDS011;36281;34.132;-118.018;2023-04-25T06:42:58;21.00;;;12.23;;
50367;SDS011;36281;34.132;-118.018;2023-04-25T06:45:27;17.92;;;12.63;;
50367;SDS011;36281;34.132;-118.018;2023-04-25T06:47:56;21.67;;;13.77;;
50367;SDS011;36281;34.132;-118.018;2023-04-25T06:50:25;23.33;;;13.82;;
50367;SDS011;36281;34.132;-118.018;2023-04-25T06:52:54;22.98;;;13.18;;
50367;SDS011;36281;34.132;-118.018;2023-04-25T06:55:25;22.73;;;13.15;;
50367;SDS011;36281;34.132;-118.018;2023-04-25T06:57:54;23.88;;;14.00;;
50367;SDS011;36281;34.132;-118.018;2023-04-25T07:00:24;22.45;;;14.50;;
50367;SDS011;36281;34.132;-118.018;2023-04-25T07:02:53;24.38;;;14.43;;
50367;SDS011;36281;34.132;-118.018;2023-04-25T07:05:22;24.20;;;14.50;;
50367;SDS011;36281;34.132;-118.018;2023-04-25T07:07:51;26.20;;;15.50;;
50367;SDS011;36281;34.132;-118.018;2023-04-25T07:10:21;25.95;;;15.30;;
50367;SDS011;36281;34.132;-118.018;2023-04-25T07:12:51;27.23;;;14.98;;
50367;SDS011;36281;34.132;-118.018;2023-04-25T07:15:20;23.88;;;14.80;;
50367;SDS011;36281;34.132;-118.018;2023-04-25T07:17:50;30.63;;;15.77;;
50367;SDS011;36281;34.132;-118.018;2023-04-25T07:20:19;26.15;;;16.70;;
50367;SDS011;36281;34.132;-118.018;2023-04-25T07:22:49;25.15;;;15.35;;
50367;SDS011;36281;34.132;-118.018;2023-04-25T07:25:18;26.80;;;15.55;;
50367;SDS011;36281;34.132;-118.018;2023-04-25T07:27:48;25.30;;;14.77;;
50367;SDS011;36281;34.132;-118.018;2023-04-25T07:30:19;23.85;;;15.98;;
50367;SDS011;36281;34.132;-118.018;2023-04-25T07:32:48;29.17;;;16.95;;
50367;SDS011;36281;34.132;-118.018;2023-04-25T07:35:17;31.67;;;16.92;;
50367;SDS011;36281;34.132;-118.018;2023-04-25T07:37:47;28.20;;;15.57;;
50367;SDS011;36281;34.132;-118.018;2023-04-25T07:40:16;28.27;;;16.23;;
50367;SDS011;36281;34.132;-118.018;2023-04-25T07:42:45;30.13;;;17.52;;
50367;SDS011;36281;34.132;-118.018;2023-04-25T07:45:14;29.92;;;17.42;;
50367;SDS011;36281;34.132;-118.018;2023-04-25T07:47:45;30.83;;;17.88;;
50367;SDS011;36281;34.132;-118.018;2023-04-25T07:50:14;24.77;;;16.20;;
50367;SDS011;36281;34.132;-118.018;2023-04-25T07:52:43;30.42;;;18.13;;
50367;SDS011;36281;34.132;-118.018;2023-04-25T07:55:12;27.75;;;17.40;;
50367;SDS011;36281;34.132;-118.018;2023-04-25T07:57:42;29.52;;;17.77;;
50367;SDS011;36281;34.132;-118.018;2023-04-25T08:00:11;29.25;;;17.85;;
50367;SDS011;36281;34.132;-118.018;2023-04-25T08:02:42;29.52;;;17.52;;
50367;SDS011;36281;34.132;-118.018;2023-04-25T08:05:13;29.83;;;17.75;;
50367;SDS011;36281;34.132;-118.018;2023-04-25T08:07:48;28.88;;;17.50;;
50367;SDS011;36281;34.132;-118.018;2023-04-25T08:10:17;26.83;;;17.35;;
50367;SDS011;36281;34.132;-118.018;2023-04-25T08:12:47;29.33;;;17.45;;
50367;SDS011;36281;34.132;-118.018;2023-04-25T08:15:16;28.02;;;16.88;;
50367;SDS011;36281;34.132;-118.018;2023-04-25T08:17:45;24.88;;;15.48;;
50367;SDS011;36281;34.132;-118.018;2023-04-25T08:20:16;27.75;;;15.18;;
50367;SDS011;36281;34.132;-118.018;2023-04-25T08:22:45;27.45;;;13.98;;
50367;SDS011;36281;34.132;-118.018;2023-04-25T08:25:16;20.48;;;13.35;;
50367;SDS011;36281;34.132;-118.018;2023-04-25T08:27:45;20.65;;;13.07;;
50367;SDS011;36281;34.132;-118.018;2023-04-25T08:30:14;23.15;;;13.43;;
50367;SDS011;36281;34.132;-118.018;2023-04-25T08:32:43;23.58;;;13.07;;
50367;SDS011;36281;34.132;-118.018;2023-04-25T08:35:12;26.25;;;12.80;;
50367;SDS011;36281;34.132;-118.018;2023-04-25T08:37:43;22.67;;;12.48;;
50367;SDS011;36281;34.132;-118.018;2023-04-25T08:40:13;18.92;;;12.30;;
50367;SDS011;36281;34.132;-118.018;2023-04-25T08:42:43;22.50;;;12.63;;
50367;SDS011;36281;34.132;-118.018;2023-04-25T08:45:13;23.83;;;11.90;;
50367;SDS011;36281;34.132;-118.018;2023-04-25T08:47:42;23.08;;;12.55;;
50367;SDS011;36281;34.132;-118.018;2023-04-25T08:50:16;22.88;;;12.57;;
50367;SDS011;36281;34.132;-118.018;2023-04-25T08:52:50;22.50;;;12.75;;
50367;SDS011;36281;34.132;-118.018;2023-04-25T08:55:22;23.52;;;12.52;;
50367;SDS011;36281;34.132;-118.018;2023-04-25T08:57:52;20.90;;;13.32;;
50367;SDS011;36281;34.132;-118.018;2023-04-25T09:00:24;27.23;;;14.30;;
50367;SDS011;36281;34.132;-118.018;2023-04-25T09:02:53;26.60;;;15.13;;
50367;SDS011;36281;34.132;-118.018;2023-04-25T09:05:24;25.42;;;14.77;;
50367;SDS011;36281;34.132;-118.018;2023-04-25T09:07:55;24.30;;;13.90;;
50367;SDS011;36281;34.132;-118.018;2023-04-25T09:10:25;26.10;;;14.25;;
50367;SDS011;36281;34.132;-118.018;2023-04-25T09:13:05;29.38;;;15.43;;
50367;SDS011;36281;34.132;-118.018;2023-04-25T09:15:46;29.05;;;16.20;;
50367;SDS011;36281;34.132;-118.018;2023-04-25T09:18:26;25.85;;;14.95;;
50367;SDS011;36281;34.132;-118.018;2023-04-25T09:20:57;34.85;;;18.73;;
50367;SDS011;36281;34.132;-118.018;2023-04-25T09:23:43;32.67;;;20.00;;
50367;SDS011;36281;34.132;-118.018;2023-04-25T09:26:14;31.42;;;19.50;;
50367;SDS011;36281;34.132;-118.018;2023-04-25T09:28:44;34.95;;;20.42;;
50367;SDS011;36281;34.132;-118.018;2023-04-25T09:31:21;34.55;;;19.70;;
50367;SDS011;36281;34.132;-118.018;2023-04-25T09:33:58;39.85;;;19.45;;
50367;SDS011;36281;34.132;-118.018;2023-04-25T09:36:29;30.83;;;19.58;;
50367;SDS011;36281;34.132;-118.018;2023-04-25T09:39:01;34.70;;;19.60;;
50367;SDS011;36281;34.132;-118.018;2023-04-25T09:41:31;34.25;;;18.48;;
50367;SDS011;36281;34.132;-118.018;2023-04-25T09:44:05;31.10;;;19.27;;
50367;SDS011;36281;34.132;-118.018;2023-04-25T09:46:34;30.70;;;18.48;;
50367;SDS011;36281;34.132;-118.018;2023-04-25T09:49:06;28.48;;;17.48;;
50367;SDS011;36281;34.132;-118.018;2023-04-25T09:51:36;30.40;;;17.90;;
50367;SDS011;36281;34.132;-118.018;2023-04-25T09:54:07;32.88;;;19.52;;
50367;SDS011;36281;34.132;-118.018;2023-04-25T09:56:36;37.05;;;20.10;;
50367;SDS011;36281;34.132;-118.018;2023-04-25T09:59:05;37.40;;;18.40;;
50367;SDS011;36281;34.132;-118.018;2023-04-25T10:01:37;30.90;;;18.80;;
50367;SDS011;36281;34.132;-118.018;2023-04-25T10:04:10;36.05;;;18.92;;
50367;SDS011;36281;34.132;-118.018;2023-04-25T10:06:39;28.92;;;17.83;;
50367;SDS011;36281;34.132;-118.018;2023-04-25T10:09:12;30.05;;;17.90;;
50367;SDS011;36281;34.132;-118.018;2023-04-25T10:11:43;30.13;;;17.92;;
50367;SDS011;36281;34.132;-118.018;2023-04-25T10:14:15;29.17;;;18.50;;
50367;SDS011;36281;34.132;-118.018;2023-04-25T10:16:45;32.78;;;17.85;;
50367;SDS011;36281;34.132;-118.018;2023-04-25T10:19:15;29.90;;;18.55;;
50367;SDS011;36281;34.132;-118.018;2023-04-25T10:21:46;33.83;;;18.60;;
50367;SDS011;36281;34.132;-118.018;2023-04-25T10:24:20;33.70;;;19.45;;
50367;SDS011;36281;34.132;-118.018;2023-04-25T10:26:50;36.20;;;20.48;;
50367;SDS011;36281;34.132;-118.018;2023-04-25T10:29:23;35.95;;;19.23;;
50367;SDS011;36281;34.132;-118.018;2023-04-25T10:31:53;36.42;;;19.77;;
50367;SDS011;36281;34.132;-118.018;2023-04-25T10:34:37;31.40;;;17.48;;
50367;SDS011;36281;34.132;-118.018;2023-04-25T10:37:10;31.70;;;18.27;;
50367;SDS011;36281;34.132;-118.018;2023-04-25T10:39:43;31.52;;;18.77;;
50367;SDS011;36281;34.132;-118.018;2023-04-25T10:42:12;38.55;;;19.05;;
50367;SDS011;36281;34.132;-118.018;2023-04-25T10:44:41;36.60;;;18.85;;
50367;SDS011;36281;34.132;-118.018;2023-04-25T10:47:35;33.53;;;19.67;;
50367;SDS011;36281;34.132;-118.018;2023-04-25T10:50:11;30.85;;;19.10;;
50367;SDS011;36281;34.132;-118.018;2023-04-25T10:52:42;35.25;;;18.70;;
50367;SDS011;36281;34.132;-118.018;2023-04-25T10:55:16;35.92;;;19.42;;
50367;SDS011;36281;34.132;-118.018;2023-04-25T10:57:45;34.45;;;18.63;;
50367;SDS011;36281;34.132;-118.018;2023-04-25T11:00:16;33.55;;;18.55;;
50367;SDS011;36281;34.132;-118.018;2023-04-25T11:02:48;32.50;;;18.70;;
50367;SDS011;36281;34.132;-118.018;2023-04-25T11:05:22;36.22;;;19.67;;
50367;SDS011;36281;34.132;-118.018;2023-04-25T11:07:59;34.63;;;19.05;;
50367;SDS011;36281;34.132;-118.018;2023-04-25T11:10:35;31.30;;;19.85;;
50367;SDS011;36281;34.132;-118.018;2023-04-25T11:13:04;33.97;;;18.92;;
50367;SDS011;36281;34.132;-118.018;2023-04-25T11:15:34;40.33;;;19.92;;
50367;SDS011;36281;34.132;-118.018;2023-04-25T11:18:03;34.22;;;19.25;;
50367;SDS011;36281;34.132;-118.018;2023-04-25T11:20:32;36.30;;;20.13;;
50367;SDS011;36281;34.132;-118.018;2023-04-25T11:23:01;39.38;;;21.20;;
50367;SDS011;36281;34.132;-118.018;2023-04-25T11:25:37;32.03;;;18.77;;
50367;SDS011;36281;34.132;-118.018;2023-04-25T11:28:06;35.90;;;19.98;;
50367;SDS011;36281;34.132;-118.018;2023-04-25T11:30:36;36.65;;;19.17;;
50367;SDS011;36281;34.132;-118.018;2023-04-25T11:33:05;38.65;;;20.88;;
50367;SDS011;36281;34.132;-118.018;2023-04-25T11:35:34;35.20;;;19.92;;
50367;SDS011;36281;34.132;-118.018;2023-04-25T11:38:03;35.60;;;19.60;;
50367;SDS011;36281;34.132;-118.018;2023-04-25T11:40:33;33.08;;;19.50;;
50367;SDS011;36281;34.132;-118.018;2023-04-25T11:43:05;38.85;;;20.52;;
50367;SDS011;36281;34.132;-118.018;2023-04-25T11:45:36;32.45;;;18.92;;
50367;SDS011;36281;34.132;-118.018;2023-04-25T11:48:05;35.92;;;19.55;;
50367;SDS011;36281;34.132;-118.018;2023-04-25T11:50:34;35.42;;;18.92;;
50367;SDS011;36281;34.132;-118.018;2023-04-25T11:53:03;30.35;;;19.48;;
50367;SDS011;36281;34.132;-118.018;2023-04-25T11:55:33;31.83;;;20.05;;
50367;SDS011;36281;34.132;-118.018;2023-04-25T11:58:05;32.55;;;19.02;;
50367;SDS011;36281;34.132;-118.018;2023-04-25T12:00:36;36.75;;;19.95;;
50367;SDS011;36281;34.132;-118.018;2023-04-25T12:03:17;36.35;;;20.50;;
50367;SDS011;36281;34.132;-118.018;2023-04-25T12:05:47;35.03;;;19.38;;
50367;SDS011;36281;34.132;-118.018;2023-04-25T12:08:16;32.30;;;19.17;;
50367;SDS011;36281;34.132;-118.018;2023-04-25T12:10:45;30.52;;;17.83;;
50367;SDS011;36281;34.132;-118.018;2023-04-25T12:13:23;33.08;;;17.60;;
50367;SDS011;36281;34.132;-118.018;2023-04-25T12:15:54;31.38;;;16.63;;
50367;SDS011;36281;34.132;-118.018;2023-04-25T12:18:24;28.58;;;18.42;;
50367;SDS011;36281;34.132;-118.018;2023-04-25T12:20:56;30.48;;;18.15;;
50367;SDS011;36281;34.132;-118.018;2023-04-25T12:23:26;34.22;;;18.27;;
50367;SDS011;36281;34.132;-118.018;2023-04-25T12:25:56;34.85;;;19.55;;
50367;SDS011;36281;34.132;-118.018;2023-04-25T12:28:27;32.20;;;18.50;;
50367;SDS011;36281;34.132;-118.018;2023-04-25T12:30:57;34.08;;;18.42;;
50367;SDS011;36281;34.132;-118.018;2023-04-25T12:33:28;33.03;;;19.05;;
50367;SDS011;36281;34.132;-118.018;2023-04-25T12:35:59;33.50;;;17.92;;
50367;SDS011;36281;34.132;-118.018;2023-04-25T12:38:36;27.52;;;15.00;;
50367;SDS011;36281;34.132;-118.018;2023-04-25T12:41:06;25.70;;;14.40;;
50367;SDS011;36281;34.132;-118.018;2023-04-25T12:43:37;26.90;;;14.02;;
50367;SDS011;36281;34.132;-118.018;2023-04-25T12:46:06;32.28;;;14.45;;
50367;SDS011;36281;34.132;-118.018;2023-04-25T12:48:36;25.63;;;14.75;;
50367;SDS011;36281;34.132;-118.018;2023-04-25T12:51:05;27.10;;;14.45;;
50367;SDS011;36281;34.132;-118.018;2023-04-25T12:53:35;28.40;;;15.30;;
50367;SDS011;36281;34.132;-118.018;2023-04-25T12:56:05;25.80;;;14.90;;
50367;SDS011;36281;34.132;-118.018;2023-04-25T12:58:35;25.98;;;14.00;;
50367;SDS011;36281;34.132;-118.018;2023-04-25T13:01:05;23.40;;;13.25;;
50367;SDS011;36281;34.132;-118.018;2023-04-25T13:03:34;22.27;;;12.98;;
50367;SDS011;36281;34.132;-118.018;2023-04-25T13:06:04;23.77;;;12.90;;
50367;SDS011;36281;34.132;-118.018;2023-04-25T13:08:34;24.08;;;12.52;;
50367;SDS011;36281;34.132;-118.018;2023-04-25T13:11:04;21.30;;;12.07;;
50367;SDS011;36281;34.132;-118.018;2023-04-25T13:13:33;19.90;;;11.02;;
50367;SDS011;36281;34.132;-118.018;2023-04-25T13:16:04;22.48;;;12.82;;
50367;SDS011;36281;34.132;-118.018;2023-04-25T13:18:35;19.13;;;11.10;;
50367;SDS011;36281;34.132;-118.018;2023-04-25T13:21:04;24.10;;;11.85;;
50367;SDS011;36281;34.132;-118.018;2023-04-25T13:23:33;18.63;;;10.85;;
50367;SDS011;36281;34.132;-118.018;2023-04-25T13:26:02;21.33;;;11.75;;
50367;SDS011;36281;34.132;-118.018;2023-04-25T13:28:31;21.92;;;11.52;;
50367;SDS011;36281;34.132;-118.018;2023-04-25T13:31:01;22.55;;;12.65;;
50367;SDS011;36281;34.132;-118.018;2023-04-25T13:33:31;20.25;;;12.30;;
50367;SDS011;36281;34.132;-118.018;2023-04-25T13:36:00;22.67;;;13.27;;
50367;SDS011;36281;34.132;-118.018;2023-04-25T13:38:30;22.75;;;13.50;;
50367;SDS011;36281;34.132;-118.018;2023-04-25T13:40:59;23.15;;;13.85;;
50367;SDS011;36281;34.132;-118.018;2023-04-25T13:43:28;26.15;;;13.27;;
50367;SDS011;36281;34.132;-118.018;2023-04-25T13:45:57;21.65;;;12.25;;
50367;SDS011;36281;34.132;-118.018;2023-04-25T13:48:27;19.25;;;12.30;;
50367;SDS011;36281;34.132;-118.018;2023-04-25T13:50:58;21.83;;;12.27;;
50367;SDS011;36281;34.132;-118.018;2023-04-25T13:53:27;20.65;;;12.38;;
50367;SDS011;36281;34.132;-118.018;2023-04-25T13:55:56;21.77;;;12.70;;
50367;SDS011;36281;34.132;-118.018;2023-04-25T13:58:25;20.42;;;12.90;;
50367;SDS011;36281;34.132;-118.018;2023-04-25T14:00:54;19.10;;;12.73;;
50367;SDS011;36281;34.132;-118.018;2023-04-25T14:03:23;24.92;;;13.15;;